Current Conditions
Clear
Conditions



Pressure
30.26 (inHG) - 1024.72 (mb)
Visibility

10.0 (miles) - 16.1 (km)
Temperature
52  °F
Temperature
43  °F
Dewpoint
72  %
 Humidity
Wind Speed
9  mph
8  kts
14  km/h
4.0  m/s
Wind Direction
N
45°
E
90°
135°
S
180°
225°
W
270°
315°
 140°

South East
Airport Data
KAVP
Wilkes Barre Scranton International Airport
Metar :KAVP 050354Z 14008G19KT 120V190 10SM CLR 11/06 A3026 RMK AO2 SLP244 T01060056
Mon 4th March 22:54 pm
Raw Metar Info
Raw METAR is the most common format in the world for the transmission of observational weather data. It is highly standardized through the International Civil Aviation Organization (ICAO), which allows it to be understood throughout most of the world.
API Info
Data Provided by
https://www.checkwx.com/weather/KAVP

Aviation Weather providing METAR, TAF, AIRMET, SIGMET and OUTLOOK Weather Reports
© Info
CSS/SVG/PHP scripts were developed by weather34 for use in the weather34 template © 2015-2024

Guide Info provided by Metar-Wikipedia